« Back
NWS Peachtree City, Ga » Text Product » MCN Terminal Aerodrome Forecast


Printer-friendly Version
Current Version              Previous Versions:   1  2  3  4  5  6  7  8  9  

Terminal Aerodrome Forecast

711
FTUS42 KFFC 271100
TAFMCN
TAF
KMCN 271128Z 2712/2812 27005KT P6SM FEW150
     FM271400 26008KT P6SM SCT035
     FM271800 25010G18KT P6SM SCT050
     FM280000 25007KT P6SM FEW060
     FM281000 25005KT P6SM SCT050 BKN120=



USA.gov is the U.S. government's official web portal to all federal, state and local government web resources and services.